createdAt,value
2022-12-01T00:01:02.655Z,97258.44
2022-12-01T00:03:33.184Z,97267.56
2022-12-01T00:06:15.424Z,97256.59
2022-12-01T00:09:01.253Z,97254.25
2022-12-01T00:11:27.738Z,97253.47
2022-12-01T00:13:54.113Z,97253.81
2022-12-01T00:16:21.015Z,97253.94
2022-12-01T00:18:50.879Z,97254.34
2022-12-01T00:21:19.332Z,97252.84
2022-12-01T00:23:47.444Z,97235.03
2022-12-01T00:26:15.210Z,97251.63
2022-12-01T00:28:41.717Z,97252.72
2022-12-01T00:31:09.242Z,97251.31
2022-12-01T00:33:35.723Z,97244.31
2022-12-01T00:36:02.258Z,97250.81
2022-12-01T00:38:28.744Z,97247.03
2022-12-01T00:40:55.401Z,97248.78
2022-12-01T00:43:21.818Z,97248.91
2022-12-01T00:45:48.358Z,97252.47
2022-12-01T00:48:14.897Z,97253.09
2022-12-01T00:50:41.684Z,97255.47
2022-12-01T00:53:08.501Z,97251.78
2022-12-01T00:55:35.189Z,97250.59
2022-12-01T00:58:01.581Z,97254.69
2022-12-01T01:03:07.601Z,97255.34
2022-12-01T01:05:42.014Z,97252.66
2022-12-01T01:08:13.620Z,97252.59
2022-12-01T01:10:41.545Z,97263.22
2022-12-01T01:13:08.620Z,97261.34
2022-12-01T01:15:35.654Z,97251.56
2022-12-01T01:18:02.168Z,97269.06
2022-12-01T01:20:29.053Z,97261.41
2022-12-01T01:22:55.623Z,97257.97
2022-12-01T01:25:22.748Z,97259.44
2022-12-01T01:27:49.321Z,97262.59
2022-12-01T01:30:16.131Z,97262.59
2022-12-01T01:32:42.473Z,97254.03
2022-12-01T01:35:08.959Z,97256.38
2022-12-01T01:37:35.292Z,97261.50
2022-12-01T01:40:01.693Z,97255.81
2022-12-01T01:42:28.035Z,97260.78
2022-12-01T01:44:58.709Z,97256.28
2022-12-01T01:47:27.702Z,97257.97
2022-12-01T01:49:56.666Z,97258.66
2022-12-01T01:52:23.550Z,97258.25
2022-12-01T01:54:54.595Z,97246.28
2022-12-01T01:57:26.591Z,97252.06
2022-12-01T02:00:01.221Z,97255.44
2022-12-01T02:02:27.696Z,97247.81
2022-12-01T02:05:01.588Z,97251.97
2022-12-01T02:07:28.550Z,97238.50
2022-12-01T02:09:55.601Z,97248.72
2022-12-01T02:12:41.120Z,97244.50
2022-12-01T02:15:33.401Z,97243.78
2022-12-01T02:18:35.347Z,97241.97
2022-12-01T02:21:29.292Z,97237.50
2022-12-01T02:24:07.568Z,97235.56
2022-12-01T02:26:57.682Z,97224.94
2022-12-01T02:29:42.813Z,97237.31
2022-12-01T02:32:22.001Z,97235.56
2022-12-01T02:35:05.578Z,97237.63
2022-12-01T02:37:35.198Z,97236.31
2022-12-01T02:40:20.443Z,97236.31
2022-12-01T02:43:02.197Z,97236.31
2022-12-01T02:45:40.550Z,97233.81
2022-12-01T02:48:19.126Z,97223.69
2022-12-01T02:50:46.425Z,97230.91
2022-12-01T02:53:18.534Z,97230.19
2022-12-01T02:55:55.794Z,97228.97
2022-12-01T02:58:22.230Z,97222.31
2022-12-01T03:01:01.205Z,97226.78
2022-12-01T03:03:45.022Z,97222.16
2022-12-01T03:06:22.694Z,97222.84
2022-12-01T03:09:15.686Z,97230.63
2022-12-01T03:11:51.442Z,97231.50
2022-12-01T03:14:36.144Z,97229.50
2022-12-01T03:17:11.678Z,97230.06
2022-12-01T03:19:47.168Z,97221.81
2022-12-01T03:22:24.691Z,97219.59
2022-12-01T03:24:55.142Z,97230.41
2022-12-01T03:27:26.850Z,97228.09
2022-12-01T03:29:57.657Z,97226.38
2022-12-01T03:32:29.503Z,97226.53
2022-12-01T03:35:10.923Z,97223.25
2022-12-01T03:37:42.615Z,97213.16
2022-12-01T03:40:14.508Z,97208.72
2022-12-01T03:43:03.972Z,97209.69
2022-12-01T03:45:30.259Z,97209.03
2022-12-01T03:47:57.231Z,97212.59
2022-12-01T03:50:29.891Z,97214.72
2022-12-01T03:53:19.127Z,97220.94
2022-12-01T03:55:51.880Z,97218.06
2022-12-01T03:58:30.596Z,97222.41
2022-12-01T04:00:58.398Z,97214.34
2022-12-01T04:03:26.218Z,97223.63
2022-12-01T04:05:52.707Z,97221.91
2022-12-01T04:08:19.053Z,97222.94
2022-12-01T04:10:45.481Z,97218.97
2022-12-01T04:13:16.792Z,97219.94
2022-12-01T04:15:43.608Z,97214.94
2022-12-01T04:18:10.023Z,97215.81
2022-12-01T04:20:36.363Z,97218.75
2022-12-01T04:23:02.700Z,97222.16
2022-12-01T04:25:29.035Z,97218.69
2022-12-01T04:27:55.345Z,97216.81
2022-12-01T04:30:21.790Z,97222.19
2022-12-01T04:32:48.167Z,97219.28
2022-12-01T04:35:14.486Z,97211.50
2022-12-01T04:37:41.016Z,97221.63
2022-12-01T04:40:08.214Z,97217.97
2022-12-01T04:42:34.601Z,97216.84
2022-12-01T04:45:00.932Z,97211.56
2022-12-01T04:47:27.326Z,97219.44
2022-12-01T04:49:54.386Z,97220.00
2022-12-01T04:52:20.719Z,97218.22
2022-12-01T04:54:47.213Z,97223.31
2022-12-01T04:57:13.618Z,97223.25
2022-12-01T04:59:40.085Z,97225.03
2022-12-01T05:02:06.555Z,97221.09
2022-12-01T05:04:34.101Z,97220.31
2022-12-01T05:07:00.445Z,97225.81
2022-12-01T05:09:26.834Z,97213.94
2022-12-01T05:11:53.182Z,97220.63
2022-12-01T05:14:19.513Z,97215.97
2022-12-01T05:16:45.908Z,97220.69
2022-12-01T05:19:31.149Z,97222.19
2022-12-01T05:21:57.542Z,97223.75
2022-12-01T05:24:23.902Z,97220.38
2022-12-01T05:26:50.344Z,97223.69
2022-12-01T05:29:17.141Z,97219.34
2022-12-01T05:31:45.583Z,97217.56
2022-12-01T05:34:12.011Z,97221.78
2022-12-01T05:36:38.373Z,97215.63
2022-12-01T05:39:05.446Z,97223.44
2022-12-01T05:41:32.072Z,97220.91
2022-12-01T05:43:58.513Z,97217.38
2022-12-01T05:46:24.966Z,97212.97
2022-12-01T05:48:51.356Z,97211.16
2022-12-01T05:51:17.966Z,97213.75
2022-12-01T05:53:44.649Z,97218.69
2022-12-01T05:56:11.152Z,97223.06
2022-12-01T05:58:37.719Z,97224.16
2022-12-01T06:01:04.243Z,97221.72
2022-12-01T06:03:30.815Z,97227.44
2022-12-01T06:05:57.152Z,97223.13
2022-12-01T06:08:23.554Z,97222.88
2022-12-01T06:10:49.956Z,97226.25
2022-12-01T06:13:16.378Z,97229.56
2022-12-01T06:15:42.809Z,97222.00
2022-12-01T06:18:09.352Z,97215.25
2022-12-01T06:20:35.856Z,97220.28
2022-12-01T06:23:02.683Z,97216.91
2022-12-01T06:25:29.085Z,97230.50
2022-12-01T06:27:57.444Z,97233.44
2022-12-01T06:30:24.954Z,97225.94
2022-12-01T06:32:51.370Z,97227.69
2022-12-01T06:35:17.794Z,97233.13
2022-12-01T06:37:44.170Z,97232.50
2022-12-01T06:40:11.409Z,97239.47
2022-12-01T06:42:37.757Z,97239.50
2022-12-01T06:45:04.410Z,97237.09
2022-12-01T06:47:30.885Z,97238.97
2022-12-01T06:49:57.366Z,97239.94
2022-12-01T06:52:23.826Z,97231.72
2022-12-01T06:54:50.248Z,97236.84
2022-12-01T06:57:17.028Z,97228.66
2022-12-01T06:59:43.784Z,97238.81
2022-12-01T07:02:11.200Z,97235.28
2022-12-01T07:04:37.593Z,97243.09
2022-12-01T07:07:07.086Z,97245.06
2022-12-01T07:09:33.796Z,97239.38
2022-12-01T07:12:00.181Z,97243.00
2022-12-01T07:14:27.489Z,97244.09
2022-12-01T07:16:53.897Z,97244.31
2022-12-01T07:19:20.484Z,97240.31
2022-12-01T07:21:46.863Z,97242.28
2022-12-01T07:24:13.610Z,97246.66
2022-12-01T07:26:41.170Z,97246.97
2022-12-01T07:29:09.109Z,97244.59
2022-12-01T07:31:37.787Z,97253.19
2022-12-01T07:34:05.179Z,97245.94
2022-12-01T07:36:31.730Z,97252.34
2022-12-01T07:38:58.294Z,97250.75
2022-12-01T07:41:24.747Z,97250.13
2022-12-01T07:43:51.149Z,97249.38
2022-12-01T07:46:24.193Z,97250.66
2022-12-01T07:48:52.279Z,97244.16
2022-12-01T07:51:18.960Z,97251.81
2022-12-01T07:53:46.875Z,97252.75
2022-12-01T07:56:13.609Z,97255.56
2022-12-01T07:58:40.015Z,97252.56
2022-12-01T08:01:18.080Z,97245.94
2022-12-01T08:03:44.902Z,97249.97
2022-12-01T08:06:12.231Z,97246.25
2022-12-01T08:08:40.587Z,97248.31
2022-12-01T08:11:12.249Z,97253.00
2022-12-01T08:13:39.229Z,97259.09
2022-12-01T08:16:08.069Z,97249.97
2022-12-01T08:18:35.786Z,97261.72
2022-12-01T08:21:02.658Z,97258.69
2022-12-01T08:23:29.002Z,97249.47
2022-12-01T08:25:55.482Z,97250.38
2022-12-01T08:28:21.990Z,97246.63
2022-12-01T08:30:48.500Z,97244.88
2022-12-01T08:33:14.850Z,97251.25
2022-12-01T08:35:41.211Z,97252.56
2022-12-01T08:38:07.617Z,97257.91
2022-12-01T08:40:34.046Z,97257.25
2022-12-01T08:43:00.484Z,97259.28
2022-12-01T08:45:27.001Z,97251.69
2022-12-01T08:47:54.594Z,97255.91
2022-12-01T08:50:21.050Z,97256.16
2022-12-01T08:52:47.463Z,97249.72
2022-12-01T08:55:14.134Z,97259.97
2022-12-01T08:57:40.561Z,97252.63
2022-12-01T09:00:07.707Z,97254.28
2022-12-01T09:02:34.596Z,97245.59
2022-12-01T09:05:01.037Z,97257.31
2022-12-01T09:07:27.465Z,97253.44
2022-12-01T09:09:53.978Z,97251.50
2022-12-01T09:12:20.325Z,97256.56
2022-12-01T09:14:49.712Z,97258.75
2022-12-01T09:17:17.280Z,97263.69
2022-12-01T09:19:44.345Z,97266.94
2022-12-01T09:22:11.752Z,97266.63
2022-12-01T09:24:38.430Z,97267.88
2022-12-01T09:27:05.272Z,97263.41
2022-12-01T09:29:32.185Z,97252.75
2022-12-01T09:31:59.925Z,97258.28
2022-12-01T09:34:27.768Z,97262.72
2022-12-01T09:36:58.501Z,97255.28
2022-12-01T09:39:25.720Z,97268.53
2022-12-01T09:41:55.372Z,97249.16
2022-12-01T09:44:45.383Z,97252.22
2022-12-01T09:47:18.830Z,97250.63
2022-12-01T09:50:15.269Z,97256.28
2022-12-01T09:52:46.037Z,97256.97
2022-12-01T09:55:18.794Z,97264.97
2022-12-01T09:57:50.683Z,97255.09
2022-12-01T10:00:24.336Z,97245.53
2022-12-01T10:02:56.601Z,97239.34
2022-12-01T10:05:26.870Z,97232.88
2022-12-01T10:08:01.304Z,97227.50
2022-12-01T10:10:30.841Z,97221.13
2022-12-01T10:12:57.662Z,97211.00
2022-12-01T10:15:45.710Z,97215.44
2022-12-01T10:18:33.977Z,97205.13
2022-12-01T10:21:42.882Z,97202.44
2022-12-01T10:24:17.778Z,97200.34
2022-12-01T10:27:05.827Z,97202.94
2022-12-01T10:29:47.721Z,97211.97
2022-12-01T10:32:21.476Z,97195.69
2022-12-01T10:34:48.203Z,97200.75
2022-12-01T10:37:24.301Z,97199.13
2022-12-01T10:39:52.797Z,97197.91
2022-12-01T10:42:35.993Z,97199.63
2022-12-01T10:45:07.175Z,97211.81
2022-12-01T10:47:34.012Z,97212.59
2022-12-01T10:50:00.381Z,97214.25
2022-12-01T10:52:38.559Z,97222.50
2022-12-01T10:55:23.939Z,97213.22
2022-12-01T10:57:52.304Z,97216.47
2022-12-01T11:03:22.080Z,97211.69
2022-12-01T11:05:54.698Z,97212.25
2022-12-01T11:08:29.655Z,97211.31
2022-12-01T11:10:56.730Z,97212.84
2022-12-01T11:13:30.234Z,97212.75
2022-12-01T11:16:02.140Z,97209.34
2022-12-01T11:18:33.404Z,97210.59
2022-12-01T11:21:14.925Z,97202.53
2022-12-01T11:23:49.299Z,97198.81
2022-12-01T11:26:23.731Z,97207.50
2022-12-01T11:29:24.510Z,97201.66
2022-12-01T11:31:52.963Z,97198.25
2022-12-01T11:34:24.467Z,97198.09
2022-12-01T11:36:54.430Z,97196.56
2022-12-01T11:39:42.376Z,97198.09
2022-12-01T11:42:11.672Z,97196.50
2022-12-01T11:44:54.015Z,97190.38
2022-12-01T11:47:24.578Z,97191.22
2022-12-01T11:49:54.525Z,97192.44
2022-12-01T11:52:32.369Z,97185.75
2022-12-01T11:55:21.039Z,97196.88
2022-12-01T11:57:51.107Z,97195.06
2022-12-01T12:00:19.649Z,97191.69
2022-12-01T12:03:19.207Z,97185.81
2022-12-01T12:06:39.337Z,97193.47
2022-12-01T12:09:15.040Z,97193.63
2022-12-01T12:12:33.311Z,97194.38
2022-12-01T12:15:13.002Z,97196.97
2022-12-01T12:17:51.354Z,97183.50
2022-12-01T12:20:24.762Z,97181.47
2022-12-01T12:23:13.052Z,97183.88
2022-12-01T12:26:17.118Z,97173.53
2022-12-01T12:29:14.157Z,97175.97
2022-12-01T12:32:05.634Z,97179.97
2022-12-01T12:34:31.893Z,97178.84
2022-12-01T12:37:20.526Z,97177.09
2022-12-01T12:40:13.796Z,97177.97
2022-12-01T12:42:42.882Z,97174.63
2022-12-01T12:45:35.769Z,97171.44
2022-12-01T12:48:28.511Z,97175.78
2022-12-01T12:51:31.639Z,97172.56
2022-12-01T12:54:23.519Z,97165.91
2022-12-01T12:57:05.653Z,97168.66
2022-12-01T12:59:40.823Z,97165.19
2022-12-01T13:02:18.644Z,97165.38
2022-12-01T13:05:02.410Z,97166.16
2022-12-01T13:07:37.941Z,97171.94
2022-12-01T13:10:29.372Z,97170.31
2022-12-01T13:13:31.879Z,97167.91
2022-12-01T13:16:00.806Z,97166.97
2022-12-01T13:18:42.581Z,97166.03
2022-12-01T13:21:16.313Z,97158.41
2022-12-01T13:23:45.316Z,97159.81
2022-12-01T13:26:12.599Z,97158.16
2022-12-01T13:28:48.989Z,97152.19
2022-12-01T13:31:16.919Z,97163.28
2022-12-01T13:33:55.329Z,97149.66
2022-12-01T13:36:45.727Z,97145.50
2022-12-01T13:39:21.529Z,97148.00
2022-12-01T13:42:01.331Z,97155.59
2022-12-01T13:44:38.532Z,97153.88
2022-12-01T13:47:24.892Z,97152.91
2022-12-01T13:49:53.187Z,97147.84
2022-12-01T13:52:22.652Z,97153.66
2022-12-01T13:55:07.473Z,97151.06
2022-12-01T13:57:36.877Z,97152.88
2022-12-01T14:00:21.480Z,97154.66
2022-12-01T14:03:16.730Z,97153.72
2022-12-01T14:06:02.084Z,97152.66
2022-12-01T14:08:31.373Z,97155.84
2022-12-01T14:11:08.095Z,97157.38
2022-12-01T14:13:50.391Z,97157.44
2022-12-01T14:16:17.066Z,97159.97
2022-12-01T14:18:51.741Z,97159.13
2022-12-01T14:21:47.202Z,97155.06
2022-12-01T14:24:35.615Z,97153.38
2022-12-01T14:27:02.929Z,97148.25
2022-12-01T14:29:33.482Z,97148.25
2022-12-01T14:31:59.770Z,97154.03
2022-12-01T14:34:30.280Z,97145.50
2022-12-01T14:37:24.959Z,97144.53
2022-12-01T14:40:13.456Z,97151.16
2022-12-01T14:43:02.487Z,97144.41
2022-12-01T14:45:41.290Z,97151.88
2022-12-01T14:48:18.427Z,97144.34
2022-12-01T14:50:52.148Z,97149.41
2022-12-01T14:53:31.827Z,97146.00
2022-12-01T14:56:24.716Z,97144.28
2022-12-01T14:59:13.672Z,97148.41
2022-12-01T15:01:40.878Z,97155.94
2022-12-01T15:04:07.433Z,97147.31
2022-12-01T15:06:35.869Z,97149.84
2022-12-01T15:11:56.883Z,97146.25
2022-12-01T15:14:47.512Z,97141.06
2022-12-01T15:17:32.556Z,97141.66
2022-12-01T15:19:58.933Z,97144.19
2022-12-01T15:22:30.697Z,97135.59
2022-12-01T15:25:15.085Z,97148.13
2022-12-01T15:27:43.369Z,97142.25
2022-12-01T15:30:14.574Z,97145.56
2022-12-01T15:32:45.586Z,97141.16
2022-12-01T15:35:23.541Z,97145.34
2022-12-01T15:37:51.440Z,97135.94
2022-12-01T15:43:20.332Z,97144.31
2022-12-01T15:45:56.125Z,97145.97
2022-12-01T15:48:32.037Z,97146.84
2022-12-01T15:51:10.147Z,97144.41
2022-12-01T15:53:39.860Z,97147.69
2022-12-01T15:56:08.736Z,97149.41
2022-12-01T15:58:47.200Z,97149.31
2022-12-01T16:01:21.420Z,97134.03
2022-12-01T16:03:58.348Z,97134.91
2022-12-01T16:06:33.361Z,97137.50
2022-12-01T16:09:07.308Z,97140.63
2022-12-01T16:11:33.951Z,97134.75
2022-12-01T16:14:21.372Z,97134.59
2022-12-01T16:16:49.491Z,97133.59
2022-12-01T16:19:18.950Z,97128.66
2022-12-01T16:21:54.328Z,97134.47
2022-12-01T16:24:27.254Z,97137.13
2022-12-01T16:26:58.153Z,97137.13
2022-12-01T16:29:26.019Z,97135.56
2022-12-01T16:32:13.030Z,97139.03
2022-12-01T16:34:47.172Z,97143.09
2022-12-01T16:37:14.476Z,97140.47
2022-12-01T16:39:40.853Z,97152.44
2022-12-01T16:42:12.018Z,97148.88
2022-12-01T16:44:38.393Z,97144.53
2022-12-01T16:47:12.750Z,97158.06
2022-12-01T16:49:39.375Z,97149.59
2022-12-01T16:52:22.087Z,97149.50
2022-12-01T16:54:52.261Z,97152.06
2022-12-01T16:57:18.732Z,97152.84
2022-12-01T16:59:45.290Z,97146.97
2022-12-01T17:02:11.805Z,97158.00
2022-12-01T17:04:38.172Z,97155.28
2022-12-01T17:07:04.742Z,97161.97
2022-12-01T17:09:31.058Z,97159.50
2022-12-01T17:11:57.487Z,97158.63
2022-12-01T17:14:24.263Z,97156.78
2022-12-01T17:16:50.946Z,97154.13
2022-12-01T17:19:17.575Z,97155.88
2022-12-01T17:21:43.915Z,97158.25
2022-12-01T17:24:10.300Z,97160.78
2022-12-01T17:26:36.738Z,97158.25
2022-12-01T17:29:03.571Z,97157.44
2022-12-01T17:31:30.052Z,97169.47
2022-12-01T17:33:56.497Z,97163.56
2022-12-01T17:36:22.871Z,97150.91
2022-12-01T17:38:50.376Z,97166.94
2022-12-01T17:41:21.816Z,97161.72
2022-12-01T17:43:48.261Z,97158.22
2022-12-01T17:46:15.054Z,97160.88
2022-12-01T17:48:43.597Z,97161.78
2022-12-01T17:51:12.079Z,97160.00
2022-12-01T17:53:41.522Z,97161.66
2022-12-01T17:56:10.015Z,97164.16
2022-12-01T17:58:36.622Z,97161.66
2022-12-01T18:01:04.290Z,97160.75
2022-12-01T18:03:30.757Z,97170.84
2022-12-01T18:06:01.762Z,97173.47
2022-12-01T18:08:30.258Z,97177.75
2022-12-01T18:11:01.027Z,97176.00
2022-12-01T18:13:27.759Z,97179.16
2022-12-01T18:15:54.212Z,97172.44
2022-12-01T18:18:20.932Z,97178.38
2022-12-01T18:20:47.398Z,97175.84
2022-12-01T18:23:13.909Z,97175.81
2022-12-01T18:25:40.870Z,97171.47
2022-12-01T18:28:07.817Z,97179.16
2022-12-01T18:30:34.762Z,97177.50
2022-12-01T18:33:01.713Z,97171.63
2022-12-01T18:35:31.951Z,97169.81
2022-12-01T18:37:58.706Z,97178.19
2022-12-01T18:40:25.166Z,97171.38
2022-12-01T18:42:51.599Z,97175.56
2022-12-01T18:45:21.262Z,97173.91
2022-12-01T18:47:47.940Z,97176.44
2022-12-01T18:50:14.368Z,97177.97
2022-12-01T18:52:40.781Z,97178.84
2022-12-01T18:55:07.448Z,97179.81
2022-12-01T18:57:33.898Z,97178.78
2022-12-01T19:00:00.242Z,97178.84
2022-12-01T19:02:26.766Z,97177.09
2022-12-01T19:04:53.325Z,97182.97
2022-12-01T19:07:20.711Z,97170.31
2022-12-01T19:09:49.652Z,97180.50
2022-12-01T19:12:16.214Z,97177.97
2022-12-01T19:14:42.596Z,97177.91
2022-12-01T19:17:08.986Z,97174.81
2022-12-01T19:19:37.550Z,97173.84
2022-12-01T19:22:04.221Z,97169.50
2022-12-01T19:24:30.658Z,97171.16
2022-12-01T19:26:57.104Z,97171.25
2022-12-01T19:29:23.642Z,97171.41
2022-12-01T19:31:50.032Z,97170.59
2022-12-01T19:34:16.473Z,97171.47
2022-12-01T19:36:42.901Z,97166.16
2022-12-01T19:39:09.324Z,97164.56
2022-12-01T19:41:35.826Z,97173.03
2022-12-01T19:44:02.242Z,97169.50
2022-12-01T19:46:29.782Z,97172.03
2022-12-01T19:49:00.260Z,97174.63
2022-12-01T19:51:30.599Z,97175.44
2022-12-01T19:53:57.446Z,97179.59
2022-12-01T19:56:24.603Z,97173.69
2022-12-01T19:58:51.158Z,97177.22
2022-12-01T20:01:19.148Z,97177.09
2022-12-01T20:03:47.717Z,97173.66
2022-12-01T20:06:17.635Z,97182.75
2022-12-01T20:08:44.684Z,97167.50
2022-12-01T20:11:11.804Z,97170.91
2022-12-01T20:13:39.817Z,97171.94
2022-12-01T20:16:08.270Z,97171.75
2022-12-01T20:18:35.878Z,97174.31
2022-12-01T20:21:03.226Z,97173.44
2022-12-01T20:23:30.114Z,97171.75
2022-12-01T20:26:01.514Z,97174.31
2022-12-01T20:28:27.882Z,97185.22
2022-12-01T20:30:54.488Z,97183.56
2022-12-01T20:33:21.138Z,97178.44
2022-12-01T20:35:47.506Z,97177.47
2022-12-01T20:38:13.937Z,97179.06
2022-12-01T20:40:40.450Z,97178.91
2022-12-01T20:43:06.813Z,97180.63
2022-12-01T20:45:33.404Z,97180.56
2022-12-01T20:47:59.775Z,97175.41
2022-12-01T20:50:26.210Z,97171.94
2022-12-01T20:52:52.573Z,97173.50
2022-12-01T20:55:19.026Z,97180.41
2022-12-01T20:57:45.824Z,97177.22
2022-12-01T21:00:13.555Z,97182.03
2022-12-01T21:02:40.215Z,97175.09
2022-12-01T21:05:06.788Z,97176.81
2022-12-01T21:07:33.198Z,97172.56
2022-12-01T21:09:59.618Z,97183.53
2022-12-01T21:12:47.848Z,97178.66
2022-12-01T21:15:29.188Z,97178.56
2022-12-01T21:17:59.246Z,97187.84
2022-12-01T21:20:27.939Z,97182.91
2022-12-01T21:22:59.839Z,97182.78
2022-12-01T21:25:26.337Z,97180.94
2022-12-01T21:27:56.458Z,97186.72
2022-12-01T21:30:29.631Z,97185.81
2022-12-01T21:33:15.609Z,97188.19
2022-12-01T21:35:41.994Z,97189.00
2022-12-01T21:38:12.267Z,97186.47
2022-12-01T21:40:41.926Z,97188.97
2022-12-01T21:43:23.207Z,97180.44
2022-12-01T21:45:53.689Z,97173.72
2022-12-01T21:48:24.470Z,97175.38
2022-12-01T21:50:59.392Z,97172.75
2022-12-01T21:53:32.103Z,97179.41
2022-12-01T21:55:58.460Z,97174.81
2022-12-01T21:58:28.079Z,97173.13
2022-12-01T22:00:59.126Z,97174.81
2022-12-01T22:03:31.654Z,97177.50
2022-12-01T22:06:28.252Z,97173.28
2022-12-01T22:08:50.599Z,97167.22
2022-12-01T22:11:22.403Z,97169.75
2022-12-01T22:13:51.534Z,97168.22
2022-12-01T22:16:30.190Z,97167.28
2022-12-01T22:19:02.384Z,97158.03
2022-12-01T22:21:34.926Z,97159.78
2022-12-01T22:24:19.994Z,97159.00
2022-12-01T22:26:49.526Z,97164.69
2022-12-01T22:29:33.717Z,97161.38
2022-12-01T22:32:12.259Z,97162.13
2022-12-01T22:34:40.030Z,97159.44
2022-12-01T22:37:16.511Z,97147.66
2022-12-01T22:39:43.081Z,97151.81
2022-12-01T22:42:19.041Z,97152.56
2022-12-01T22:44:45.539Z,97153.50
2022-12-01T22:47:12.219Z,97150.19
2022-12-01T22:49:38.562Z,97138.59
2022-12-01T22:52:18.746Z,97140.94
2022-12-01T22:54:48.862Z,97133.41
2022-12-01T22:57:35.168Z,97136.56
2022-12-01T23:00:13.939Z,97128.97
2022-12-01T23:02:40.487Z,97131.44
2022-12-01T23:05:28.769Z,97128.03
2022-12-01T23:07:56.977Z,97129.78
2022-12-01T23:10:30.290Z,97124.59
2022-12-01T23:13:00.430Z,97125.44
2022-12-01T23:15:36.205Z,97114.41
2022-12-01T23:18:13.506Z,97127.00
2022-12-01T23:20:41.917Z,97117.75
2022-12-01T23:23:17.833Z,97111.13
2022-12-01T23:25:45.880Z,97111.03
2022-12-01T23:28:13.558Z,97105.09
2022-12-01T23:30:42.072Z,97097.44
2022-12-01T23:33:08.370Z,97094.91
2022-12-01T23:35:55.124Z,97097.44
2022-12-01T23:38:29.571Z,97097.41
2022-12-01T23:40:59.010Z,97090.59
2022-12-01T23:43:28.625Z,97098.22
2022-12-01T23:46:19.661Z,97084.78
2022-12-01T23:48:49.370Z,97079.69
2022-12-01T23:51:19.959Z,97080.47
2022-12-01T23:53:46.615Z,97078.81
2022-12-01T23:56:24.709Z,97076.31
2022-12-01T23:58:52.692Z,97071.94
